createdAt,value
2018-10-15T00:01:29.514Z,10.73
2018-10-15T00:04:03.052Z,10.37
2018-10-15T00:06:31.916Z,10.57
2018-10-15T00:08:59.574Z,11.33
2018-10-15T00:11:27.627Z,10.00
2018-10-15T00:13:57.306Z,9.43
2018-10-15T00:16:31.479Z,9.83
2018-10-15T00:19:17.497Z,9.43
2018-10-15T00:21:45.263Z,10.70
2018-10-15T00:24:13.185Z,9.40
2018-10-15T00:26:42.012Z,10.60
2018-10-15T00:29:11.821Z,9.60
2018-10-15T00:40:22.863Z,10.07
2018-10-15T00:42:50.173Z,9.37
2018-10-15T00:45:17.546Z,9.53
2018-10-15T00:47:44.940Z,10.60
2018-10-15T00:50:13.752Z,11.13
2018-10-15T00:52:41.307Z,10.83
2018-10-15T00:58:08.438Z,9.83
2018-10-15T01:00:35.799Z,10.80
2018-10-15T01:03:03.194Z,10.70
2018-10-15T01:05:30.569Z,9.90
2018-10-15T01:07:57.968Z,9.80
2018-10-15T01:10:25.486Z,10.47
2018-10-15T01:12:52.851Z,9.67
2018-10-15T01:15:20.261Z,10.43
2018-10-15T01:17:47.625Z,9.93
2018-10-15T01:20:26.481Z,9.83
2018-10-15T01:22:53.839Z,10.40
2018-10-15T01:25:21.196Z,10.57
2018-10-15T01:27:48.599Z,9.10
2018-10-15T01:30:16.007Z,9.40
2018-10-15T01:32:43.385Z,8.90
2018-10-15T01:35:10.775Z,9.60
2018-10-15T01:37:38.160Z,9.30
2018-10-15T01:40:05.961Z,10.10
2018-10-15T01:42:33.286Z,9.50
2018-10-15T01:45:00.692Z,8.90
2018-10-15T01:47:28.061Z,10.43
2018-10-15T01:49:55.452Z,9.17
2018-10-15T01:52:23.026Z,8.20
2018-10-15T01:54:50.662Z,8.50
2018-10-15T01:57:18.036Z,8.97
2018-10-15T01:59:45.400Z,8.57
2018-10-15T02:02:12.729Z,8.80
2018-10-15T02:04:40.106Z,8.80
2018-10-15T02:07:07.576Z,8.20
2018-10-15T02:09:34.929Z,9.37
2018-10-15T02:12:02.401Z,8.03
2018-10-15T02:14:29.805Z,9.33
2018-10-15T02:16:57.164Z,9.00
2018-10-15T02:19:24.532Z,9.40
2018-10-15T02:21:52.141Z,9.10
2018-10-15T02:24:19.491Z,9.33
2018-10-15T02:26:46.838Z,9.07
2018-10-15T02:29:14.252Z,10.03
2018-10-15T02:31:41.746Z,9.10
2018-10-15T02:34:09.167Z,8.60
2018-10-15T02:36:37.649Z,10.33
2018-10-15T02:39:07.644Z,9.57
2018-10-15T02:41:35.021Z,9.63
2018-10-15T02:46:47.620Z,9.30
2018-10-15T02:49:15.276Z,9.10
2018-10-15T02:51:42.691Z,9.10
2018-10-15T02:54:10.437Z,10.77
2018-10-15T02:56:37.856Z,10.23
2018-10-15T02:59:05.461Z,9.90
2018-10-15T03:01:32.860Z,10.33
2018-10-15T03:04:00.282Z,10.07
2018-10-15T03:06:27.778Z,9.60
2018-10-15T03:08:55.158Z,8.80
2018-10-15T03:11:22.524Z,9.90
2018-10-15T03:13:49.897Z,9.27
2018-10-15T03:16:17.286Z,9.83
2018-10-15T03:18:44.661Z,9.20
2018-10-15T03:21:12.034Z,9.80
2018-10-15T03:23:39.594Z,8.67
2018-10-15T03:26:06.915Z,8.37
2018-10-15T03:28:34.200Z,9.73
2018-10-15T03:31:01.494Z,9.37
2018-10-15T03:33:28.791Z,9.47
2018-10-15T03:35:56.089Z,10.00
2018-10-15T03:38:24.011Z,8.43
2018-10-15T03:40:51.279Z,9.30
2018-10-15T03:43:18.579Z,10.07
2018-10-15T03:45:45.856Z,9.10
2018-10-15T03:48:13.198Z,8.47
2018-10-15T03:50:40.510Z,8.83
2018-10-15T03:53:07.835Z,7.97
2018-10-15T03:55:35.176Z,12.60
2018-10-15T03:58:02.567Z,8.57
2018-10-15T04:00:29.850Z,8.57
2018-10-15T04:02:57.196Z,8.47
2018-10-15T04:05:24.490Z,8.70
2018-10-15T04:07:51.817Z,8.70
2018-10-15T04:10:19.107Z,8.63
2018-10-15T04:12:46.406Z,9.10
2018-10-15T04:15:14.215Z,8.07
2018-10-15T04:17:41.507Z,8.60
2018-10-15T04:20:08.974Z,8.73
2018-10-15T04:22:45.698Z,7.63
2018-10-15T04:25:12.977Z,9.70
2018-10-15T04:27:40.288Z,9.37
2018-10-15T04:30:07.782Z,8.73
2018-10-15T04:32:35.179Z,7.87
2018-10-15T04:35:02.479Z,8.70
2018-10-15T04:37:29.815Z,8.63
2018-10-15T04:39:57.124Z,8.43
2018-10-15T04:42:24.429Z,13.50
2018-10-15T04:44:51.752Z,9.10
2018-10-15T04:47:19.031Z,9.03
2018-10-15T04:49:46.411Z,8.67
2018-10-15T04:52:13.727Z,9.07
2018-10-15T04:54:41.044Z,11.23
2018-10-15T04:57:08.764Z,10.20
2018-10-15T04:59:36.080Z,9.43
2018-10-15T05:02:03.425Z,20.10
2018-10-15T05:04:30.756Z,11.47
2018-10-15T05:06:58.069Z,8.07
2018-10-15T05:09:25.437Z,8.50
2018-10-15T05:11:52.704Z,8.60
2018-10-15T05:14:20.001Z,8.30
2018-10-15T05:16:47.377Z,8.87
2018-10-15T05:19:14.664Z,9.23
2018-10-15T05:21:41.953Z,8.30
2018-10-15T05:24:09.380Z,8.70
2018-10-15T05:26:36.646Z,9.13
2018-10-15T05:29:03.943Z,7.93
2018-10-15T05:31:31.598Z,8.97
2018-10-15T05:33:58.891Z,11.60
2018-10-15T05:36:26.223Z,9.20
2018-10-15T05:38:53.976Z,8.80
2018-10-15T05:41:21.250Z,8.60
2018-10-15T05:43:48.540Z,9.80
2018-10-15T05:46:15.872Z,9.20
2018-10-15T05:48:43.203Z,9.13
2018-10-15T05:51:10.560Z,10.10
2018-10-15T05:53:38.110Z,9.10
2018-10-15T05:56:05.598Z,9.40
2018-10-15T05:58:32.943Z,9.90
2018-10-15T06:01:00.255Z,9.50
2018-10-15T06:03:27.571Z,9.67
2018-10-15T06:05:54.904Z,11.63
2018-10-15T06:08:22.564Z,11.00
2018-10-15T06:10:49.874Z,10.37
2018-10-15T06:13:17.246Z,13.33
2018-10-15T06:15:44.537Z,12.43
2018-10-15T06:18:12.105Z,10.13
2018-10-15T06:20:39.425Z,11.40
2018-10-15T06:23:06.847Z,10.00
2018-10-15T06:25:34.176Z,11.80
2018-10-15T06:28:01.492Z,10.33
2018-10-15T06:30:28.847Z,11.03
2018-10-15T06:32:56.190Z,10.07
2018-10-15T06:35:23.522Z,9.80
2018-10-15T06:37:51.089Z,10.60
2018-10-15T06:40:18.408Z,10.20
2018-10-15T06:42:45.775Z,10.40
2018-10-15T06:45:13.951Z,15.30
2018-10-15T06:47:41.209Z,11.27
2018-10-15T06:55:27.515Z,12.40
2018-10-15T06:57:54.861Z,18.07
2018-10-15T07:00:22.263Z,15.67
2018-10-15T07:02:49.628Z,14.53
2018-10-15T07:05:16.919Z,13.77
2018-10-15T07:07:44.503Z,12.77
2018-10-15T07:10:11.795Z,18.37
2018-10-15T07:12:39.168Z,12.80
2018-10-15T07:15:07.413Z,12.63
2018-10-15T07:17:34.720Z,14.67
2018-10-15T07:20:02.018Z,13.83
2018-10-15T07:22:29.387Z,10.33
2018-10-15T07:25:30.696Z,11.73
2018-10-15T07:27:58.157Z,10.07
2018-10-15T07:30:26.826Z,10.30
2018-10-15T07:32:54.131Z,10.00
2018-10-15T07:35:21.473Z,8.73
2018-10-15T07:37:48.798Z,8.37
2018-10-15T07:40:16.161Z,7.50
2018-10-15T07:42:43.424Z,7.63
2018-10-15T07:45:12.376Z,7.93
2018-10-15T07:47:39.683Z,12.03
2018-10-15T07:50:07.934Z,9.70
2018-10-15T07:52:35.200Z,8.73
2018-10-15T07:55:02.561Z,7.90
2018-10-15T07:57:29.926Z,8.60
2018-10-15T07:59:57.302Z,7.67
2018-10-15T08:02:24.638Z,8.10
2018-10-15T08:04:51.952Z,8.33
2018-10-15T08:07:19.291Z,8.93
2018-10-15T08:09:46.623Z,9.60
2018-10-15T08:12:13.951Z,9.37
2018-10-15T08:14:41.379Z,8.80
2018-10-15T08:17:09.379Z,9.07
2018-10-15T08:19:36.699Z,8.97
2018-10-15T08:22:04.621Z,9.80
2018-10-15T08:24:31.998Z,8.50
2018-10-15T08:26:59.329Z,9.77
2018-10-15T08:29:26.710Z,9.67
2018-10-15T08:31:54.016Z,12.17
2018-10-15T08:34:21.351Z,9.17
2018-10-15T08:36:48.770Z,9.63
2018-10-15T08:39:16.103Z,8.07
2018-10-15T08:41:43.564Z,9.63
2018-10-15T08:44:10.836Z,10.03
2018-10-15T08:46:38.213Z,10.57
2018-10-15T08:49:05.521Z,9.97
2018-10-15T08:51:33.025Z,9.70
2018-10-15T08:54:00.390Z,11.03
2018-10-15T08:56:27.703Z,9.70
2018-10-15T08:58:55.097Z,12.33
2018-10-15T09:01:22.579Z,10.13
2018-10-15T09:03:49.964Z,9.80
2018-10-15T09:06:17.563Z,11.87
2018-10-15T09:08:45.344Z,9.40
2018-10-15T09:11:12.754Z,9.30
2018-10-15T09:13:40.143Z,10.20
2018-10-15T09:16:07.524Z,9.90
2018-10-15T09:18:34.810Z,7.83
2018-10-15T09:21:02.283Z,7.90
2018-10-15T09:23:29.847Z,9.27
2018-10-15T09:25:57.326Z,9.97
2018-10-15T09:28:24.677Z,8.90
2018-10-15T09:30:52.016Z,10.23
2018-10-15T09:33:19.357Z,8.17
2018-10-15T09:35:46.666Z,7.70
2018-10-15T09:38:14.316Z,8.33
2018-10-15T09:40:41.701Z,9.47
2018-10-15T09:43:09.013Z,8.87
2018-10-15T09:45:36.452Z,10.00
2018-10-15T09:48:03.842Z,7.67
2018-10-15T09:50:31.282Z,7.40
2018-10-15T09:52:59.023Z,7.80
2018-10-15T09:55:26.296Z,7.60
2018-10-15T09:57:53.684Z,7.37
2018-10-15T10:00:26.366Z,7.53
2018-10-15T10:05:27.293Z,8.20
2018-10-15T10:07:54.672Z,8.83
2018-10-15T10:10:21.977Z,7.50
2018-10-15T10:12:49.346Z,7.70
2018-10-15T10:15:16.789Z,8.50
2018-10-15T10:17:45.227Z,10.00
2018-10-15T10:20:13.091Z,9.90
2018-10-15T10:22:40.402Z,9.27
2018-10-15T10:25:08.280Z,8.90
2018-10-15T10:27:35.626Z,8.37
2018-10-15T10:30:03.146Z,8.40
2018-10-15T10:32:30.487Z,10.20
2018-10-15T10:35:09.009Z,9.83
2018-10-15T10:37:36.327Z,9.87
2018-10-15T10:40:03.804Z,9.97
2018-10-15T10:42:31.107Z,9.60
2018-10-15T10:44:58.577Z,10.00
2018-10-15T10:47:25.937Z,9.07
2018-10-15T10:49:53.322Z,9.60
2018-10-15T10:52:20.659Z,9.33
2018-10-15T10:54:48.088Z,7.87
2018-10-15T10:57:15.476Z,9.90
2018-10-15T10:59:43.302Z,7.70
2018-10-15T11:02:10.667Z,8.60
2018-10-15T11:04:38.000Z,7.00
2018-10-15T11:07:05.468Z,10.70
2018-10-15T11:09:32.758Z,7.23
2018-10-15T11:12:00.070Z,7.00
2018-10-15T11:14:27.820Z,7.13
2018-10-15T11:16:55.518Z,7.33
2018-10-15T11:19:23.004Z,6.07
2018-10-15T11:21:50.622Z,7.60
2018-10-15T11:24:18.128Z,6.23
2018-10-15T11:26:45.355Z,10.40
2018-10-15T11:29:12.723Z,6.50
2018-10-15T11:31:40.097Z,7.77
2018-10-15T11:34:07.513Z,8.27
2018-10-15T11:36:34.821Z,7.43
2018-10-15T11:39:02.588Z,8.67
2018-10-15T11:41:29.940Z,8.07
2018-10-15T11:43:57.344Z,8.30
2018-10-15T11:46:24.965Z,8.30
2018-10-15T11:48:52.263Z,8.13
2018-10-15T11:51:19.599Z,9.10
2018-10-15T11:53:47.215Z,8.70
2018-10-15T11:56:14.534Z,8.20
2018-10-15T11:58:41.886Z,8.80
2018-10-15T12:01:09.238Z,8.47
2018-10-15T12:03:36.950Z,8.73
2018-10-15T12:06:04.257Z,8.60
2018-10-15T12:08:31.581Z,8.70
2018-10-15T12:10:59.052Z,9.33
2018-10-15T12:13:26.660Z,8.70
2018-10-15T12:15:54.066Z,8.00
2018-10-15T12:18:21.392Z,8.80
2018-10-15T12:20:48.774Z,9.50
2018-10-15T12:23:16.109Z,11.37
2018-10-15T12:25:43.429Z,9.30
2018-10-15T12:28:10.806Z,9.93
2018-10-15T12:30:38.181Z,9.47
2018-10-15T12:33:05.585Z,9.40
2018-10-15T12:35:32.924Z,9.30
2018-10-15T12:38:00.252Z,8.47
2018-10-15T12:40:27.622Z,8.53
2018-10-15T12:42:54.907Z,9.20
2018-10-15T12:45:33.277Z,9.27
2018-10-15T12:48:00.643Z,8.93
2018-10-15T12:50:27.991Z,10.57
2018-10-15T12:52:55.339Z,7.70
2018-10-15T12:55:22.683Z,8.80
2018-10-15T12:57:50.016Z,7.80
2018-10-15T13:00:17.421Z,8.17
2018-10-15T13:02:44.781Z,12.80
2018-10-15T13:05:24.332Z,9.40
2018-10-15T13:07:52.193Z,8.97
2018-10-15T13:10:19.526Z,8.80
2018-10-15T13:12:47.452Z,8.70
2018-10-15T13:15:14.817Z,9.53
2018-10-15T13:17:42.190Z,8.60
2018-10-15T13:20:10.199Z,8.40
2018-10-15T13:22:37.574Z,8.80
2018-10-15T13:25:05.287Z,7.87
2018-10-15T13:27:32.742Z,9.03
2018-10-15T13:30:00.152Z,7.93
2018-10-15T13:32:27.490Z,7.83
2018-10-15T13:34:54.889Z,7.53
2018-10-15T13:37:22.234Z,11.40
2018-10-15T13:39:49.833Z,8.17
2018-10-15T13:42:17.135Z,8.20
2018-10-15T13:44:45.522Z,8.77
2018-10-15T13:47:12.859Z,8.63
2018-10-15T13:49:40.326Z,8.87
2018-10-15T13:52:07.649Z,8.53
2018-10-15T13:54:35.246Z,8.27
2018-10-15T13:57:02.617Z,8.17
2018-10-15T13:59:30.823Z,7.30
2018-10-15T14:01:58.216Z,8.00
2018-10-15T14:04:25.544Z,8.63
2018-10-15T14:06:52.849Z,7.97
2018-10-15T14:09:20.422Z,7.70
2018-10-15T14:11:47.754Z,9.00
2018-10-15T14:14:15.083Z,8.40
2018-10-15T14:16:42.487Z,8.17
2018-10-15T14:19:09.917Z,8.20
2018-10-15T14:21:37.206Z,8.40
2018-10-15T14:24:04.520Z,8.20
2018-10-15T14:26:32.313Z,8.07
2018-10-15T14:28:59.679Z,7.53
2018-10-15T14:31:27.076Z,7.83
2018-10-15T14:33:54.455Z,8.00
2018-10-15T14:36:21.801Z,8.40
2018-10-15T14:38:49.145Z,8.10
2018-10-15T14:41:16.548Z,8.50
2018-10-15T14:43:43.937Z,7.67
2018-10-15T14:46:11.288Z,8.43
2018-10-15T14:48:38.592Z,9.47
2018-10-15T14:51:06.368Z,8.20
2018-10-15T14:53:33.664Z,8.30
2018-10-15T14:56:01.053Z,7.77
2018-10-15T14:58:28.388Z,7.43
2018-10-15T15:00:55.714Z,7.40
2018-10-15T15:03:23.058Z,7.60
2018-10-15T15:05:50.402Z,7.90
2018-10-15T15:08:17.731Z,8.07
2018-10-15T15:10:50.769Z,6.90
2018-10-15T15:13:23.463Z,7.50
2018-10-15T15:15:51.071Z,8.33
2018-10-15T15:18:18.430Z,7.00
2018-10-15T15:20:45.838Z,7.20
2018-10-15T15:23:13.191Z,8.70
2018-10-15T15:25:40.468Z,8.13
2018-10-15T15:28:07.904Z,7.40
2018-10-15T15:30:35.207Z,8.20
2018-10-15T15:33:02.708Z,8.80
2018-10-15T15:35:30.050Z,8.43
2018-10-15T15:37:57.401Z,8.53
2018-10-15T15:40:24.758Z,8.60
2018-10-15T15:42:52.470Z,8.37
2018-10-15T15:45:19.935Z,12.10
2018-10-15T15:47:47.169Z,8.07
2018-10-15T15:50:14.510Z,10.00
2018-10-15T15:52:41.889Z,8.10
2018-10-15T15:55:10.210Z,9.40
2018-10-15T15:57:37.617Z,8.23
2018-10-15T16:00:05.952Z,9.00
2018-10-15T16:02:33.273Z,9.50
2018-10-15T16:05:00.671Z,8.57
2018-10-15T16:07:28.047Z,9.13
2018-10-15T16:09:59.303Z,9.67
2018-10-15T16:12:27.665Z,9.70
2018-10-15T16:14:55.001Z,8.37
2018-10-15T16:17:22.428Z,9.77
2018-10-15T16:19:49.995Z,10.60
2018-10-15T16:22:17.339Z,9.07
2018-10-15T16:24:44.653Z,9.30
2018-10-15T16:27:12.034Z,8.10
2018-10-15T16:29:39.363Z,8.30
2018-10-15T16:32:06.978Z,9.23
2018-10-15T16:34:34.310Z,8.40
2018-10-15T16:37:01.737Z,9.57
2018-10-15T16:39:29.256Z,12.00
2018-10-15T16:41:56.673Z,9.03
2018-10-15T16:44:24.327Z,8.77
2018-10-15T16:46:52.497Z,8.67
2018-10-15T16:49:19.939Z,9.30
2018-10-15T16:51:47.329Z,9.27
2018-10-15T16:54:14.740Z,8.93
2018-10-15T16:56:42.250Z,9.73
2018-10-15T16:59:10.572Z,9.40
2018-10-15T17:01:37.962Z,8.67
2018-10-15T17:04:05.334Z,7.93
2018-10-15T17:06:32.741Z,9.37
2018-10-15T17:09:00.038Z,10.07
2018-10-15T17:11:27.528Z,10.50
2018-10-15T17:13:54.833Z,16.70
2018-10-15T17:16:22.234Z,9.47
2018-10-15T17:18:49.637Z,11.63
2018-10-15T17:21:17.021Z,9.00
2018-10-15T17:23:44.405Z,11.33
2018-10-15T17:26:11.795Z,11.70
2018-10-15T17:28:39.508Z,10.97
2018-10-15T17:31:06.958Z,14.30
2018-10-15T17:33:34.345Z,11.37
2018-10-15T17:36:01.800Z,11.00
2018-10-15T17:38:29.166Z,9.87
2018-10-15T17:40:56.497Z,9.97
2018-10-15T17:43:23.989Z,12.03
2018-10-15T17:45:51.315Z,10.47
2018-10-15T17:48:18.800Z,11.20
2018-10-15T17:50:46.277Z,11.50
2018-10-15T17:53:13.673Z,16.27
2018-10-15T17:55:41.770Z,13.53
2018-10-15T17:58:09.130Z,12.87
2018-10-15T18:00:38.549Z,12.80
2018-10-15T18:03:06.224Z,13.73
2018-10-15T18:05:33.637Z,13.13
2018-10-15T18:08:01.025Z,13.43
2018-10-15T18:10:28.394Z,13.40
2018-10-15T18:12:56.025Z,12.83
2018-10-15T18:15:23.457Z,14.33
2018-10-15T18:17:50.954Z,12.50
2018-10-15T18:20:18.444Z,14.80
2018-10-15T18:22:45.767Z,14.00
2018-10-15T18:25:13.647Z,15.80
2018-10-15T18:27:41.349Z,13.93
2018-10-15T18:30:09.359Z,13.33
2018-10-15T18:32:36.826Z,14.40
2018-10-15T18:35:04.408Z,13.23
2018-10-15T18:37:32.042Z,14.23
2018-10-15T18:39:59.508Z,14.10
2018-10-15T18:42:26.998Z,17.37
2018-10-15T18:44:54.441Z,18.70
2018-10-15T18:47:21.896Z,16.97
2018-10-15T18:49:49.437Z,20.03
2018-10-15T18:52:16.794Z,16.00
2018-10-15T18:54:44.181Z,19.33
2018-10-15T18:57:12.013Z,14.53
2018-10-15T18:59:39.689Z,17.10
2018-10-15T19:02:07.263Z,14.00
2018-10-15T19:04:34.563Z,17.60
2018-10-15T19:07:01.988Z,14.70
2018-10-15T19:09:29.364Z,17.47
2018-10-15T19:11:56.825Z,14.10
2018-10-15T19:14:24.398Z,15.60
2018-10-15T19:16:51.762Z,13.90
2018-10-15T19:19:19.171Z,16.80
2018-10-15T19:21:46.522Z,15.33
2018-10-15T19:24:13.906Z,14.70
2018-10-15T19:26:41.252Z,17.33
2018-10-15T19:29:08.666Z,18.70
2018-10-15T19:31:36.118Z,13.63
2018-10-15T19:34:03.693Z,14.17
2018-10-15T19:36:31.132Z,16.27
2018-10-15T19:38:58.506Z,12.33
2018-10-15T19:41:25.965Z,14.10
2018-10-15T19:43:53.220Z,13.20
2018-10-15T19:46:20.605Z,14.57
2018-10-15T19:48:48.281Z,13.00
2018-10-15T19:51:15.750Z,13.60
2018-10-15T19:53:43.184Z,13.17
2018-10-15T19:56:10.921Z,18.93
2018-10-15T19:58:38.242Z,11.87
2018-10-15T20:01:05.903Z,11.83
2018-10-15T20:03:33.444Z,12.67
2018-10-15T20:06:00.757Z,11.73
2018-10-15T20:08:28.160Z,12.30
2018-10-15T20:10:55.580Z,11.53
2018-10-15T20:13:22.890Z,15.63
2018-10-15T20:16:01.065Z,11.67
2018-10-15T20:18:28.445Z,15.43
2018-10-15T20:20:56.982Z,13.73
2018-10-15T20:23:24.320Z,10.73
2018-10-15T20:25:53.122Z,12.73
2018-10-15T20:28:20.730Z,14.80
2018-10-15T20:30:48.172Z,13.90
2018-10-15T20:33:15.587Z,13.23
2018-10-15T20:35:43.098Z,12.37
2018-10-15T20:38:10.626Z,13.37
2018-10-15T20:40:38.270Z,14.80
2018-10-15T20:43:06.163Z,12.23
2018-10-15T20:45:33.547Z,12.23
2018-10-15T20:48:00.978Z,12.10
2018-10-15T20:50:28.401Z,13.17
2018-10-15T20:52:55.928Z,11.93
2018-10-15T20:55:23.309Z,13.10
2018-10-15T20:57:50.727Z,12.03
2018-10-15T21:00:18.026Z,12.60
2018-10-15T21:02:45.615Z,13.10
2018-10-15T21:05:12.988Z,11.63
2018-10-15T21:07:40.387Z,12.50
2018-10-15T21:10:07.848Z,12.90
2018-10-15T21:12:35.557Z,12.20
2018-10-15T21:15:03.131Z,12.60
2018-10-15T21:17:30.704Z,12.27
2018-10-15T21:19:58.494Z,13.07
2018-10-15T21:22:26.010Z,13.63
2018-10-15T21:24:53.752Z,11.70
2018-10-15T21:27:21.496Z,13.97
2018-10-15T21:29:49.062Z,15.60
2018-10-15T21:32:16.603Z,13.03
2018-10-15T21:34:44.265Z,14.00
2018-10-15T21:37:11.913Z,13.13
2018-10-15T21:39:39.633Z,13.03
2018-10-15T21:42:07.346Z,12.10
2018-10-15T21:44:35.379Z,13.40
2018-10-15T21:47:03.045Z,11.23
2018-10-15T21:49:30.649Z,11.93
2018-10-15T21:51:58.398Z,15.53
2018-10-15T21:54:26.219Z,13.43
2018-10-15T21:56:54.459Z,12.40
2018-10-15T21:59:22.148Z,13.13
2018-10-15T22:01:50.132Z,13.77
2018-10-15T22:04:17.778Z,12.90
2018-10-15T22:06:45.468Z,12.47
2018-10-15T22:09:13.470Z,13.40
2018-10-15T22:11:41.660Z,12.43
2018-10-15T22:14:10.167Z,10.93
2018-10-15T22:16:38.753Z,13.50
2018-10-15T22:19:08.015Z,14.10
2018-10-15T22:21:36.525Z,13.33
2018-10-15T22:24:04.395Z,13.37
2018-10-15T22:26:32.018Z,12.70
2018-10-15T22:29:00.120Z,13.00
2018-10-15T22:31:27.716Z,12.70
2018-10-15T22:33:55.336Z,12.47
2018-10-15T22:36:23.048Z,12.03
2018-10-15T22:38:50.605Z,11.10
2018-10-15T22:41:18.319Z,11.40
2018-10-15T22:43:45.974Z,12.50
2018-10-15T22:46:13.585Z,12.53
2018-10-15T22:48:41.249Z,12.47
2018-10-15T22:51:08.975Z,13.10
2018-10-15T22:53:36.635Z,12.13
2018-10-15T22:56:04.812Z,14.57
2018-10-15T22:58:32.779Z,12.70
2018-10-15T23:01:00.719Z,13.40
2018-10-15T23:03:28.786Z,11.87
2018-10-15T23:05:57.529Z,12.27
2018-10-15T23:08:25.281Z,12.33
2018-10-15T23:10:53.031Z,11.70
2018-10-15T23:13:20.712Z,12.27
2018-10-15T23:15:51.089Z,12.03
2018-10-15T23:18:30.151Z,13.00
2018-10-15T23:20:58.090Z,12.83
2018-10-15T23:29:05.108Z,12.63
2018-10-15T23:31:34.051Z,12.57
2018-10-15T23:34:01.471Z,12.33
2018-10-15T23:36:28.854Z,11.90
2018-10-15T23:38:56.215Z,14.63
2018-10-15T23:41:23.634Z,13.00
2018-10-15T23:43:51.110Z,12.33
2018-10-15T23:46:18.556Z,12.37
2018-10-15T23:48:46.100Z,13.43
2018-10-15T23:51:13.546Z,12.60
2018-10-15T23:53:40.949Z,12.70
2018-10-15T23:56:08.472Z,13.83
2018-10-15T23:58:35.849Z,15.70
